Time;durP1;ratioP1;P1;durP2;ratioP2;P2;SDS_P1;SDS_P2;PMS_P1;PMS_P2;Temp;Humidity;BMP_temperature;BMP_pressure;BME280_temperature;BME280_humidity;BME280_pressure;Samples;Min_cycle;Max_cycle;Signal;HPM_P1;HPM_P2
2024/03/25 00:00:25;;;;;;;0.83;0.40;;;;;;;;;;6117727;23;20191;-82
2024/03/25 00:02:54;;;;;;;1.00;0.40;;;;;;;;;;6093425;23;20245;-81
2024/03/25 00:05:22;;;;;;;2.20;0.50;;;;;;;;;;6093316;23;20171;-81
2024/03/25 00:07:51;;;;;;;0.33;0.30;;;;;;;;;;6093203;23;20169;-82
2024/03/25 00:10:20;;;;;;;0.40;0.40;;;;;;;;;;6093068;23;20168;-82
2024/03/25 00:12:47;;;;;;;0.50;0.40;;;;;;;;;;6094164;23;20179;-83
2024/03/25 00:15:14;;;;;;;0.57;0.30;;;;;;;;;;6047448;23;20179;-80
2024/03/25 00:17:42;;;;;;;0.43;0.30;;;;;;;;;;6119577;23;20201;-83
2024/03/25 00:20:12;;;;;;;0.67;0.60;;;;;;;;;;6095356;23;20650;-80
2024/03/25 00:22:40;;;;;;;0.53;0.50;;;;;;;;;;6094662;23;20219;-79
2024/03/25 00:25:11;;;;;;;0.47;0.40;;;;;;;;;;6119163;23;20224;-82
2024/03/25 00:27:37;;;;;;;1.00;0.40;;;;;;;;;;6094785;23;20192;-80
2024/03/25 00:30:07;;;;;;;0.47;0.47;;;;;;;;;;6070862;23;20650;-82
2024/03/25 00:32:35;;;;;;;1.30;0.80;;;;;;;;;;6094801;23;20195;-84
2024/03/25 00:35:02;;;;;;;0.50;0.50;;;;;;;;;;6095585;23;20153;-80
2024/03/25 00:37:28;;;;;;;0.40;0.40;;;;;;;;;;6095112;23;20175;-80
2024/03/25 00:39:57;;;;;;;0.80;0.50;;;;;;;;;;6048015;23;20196;-81
2024/03/25 00:42:23;;;;;;;0.80;0.40;;;;;;;;;;6095026;23;20164;-80
2024/03/25 00:44:50;;;;;;;0.73;0.50;;;;;;;;;;6095338;23;20172;-82
2024/03/25 00:47:17;;;;;;;0.60;0.53;;;;;;;;;;6071870;23;20172;-80
2024/03/25 00:49:45;;;;;;;0.70;0.50;;;;;;;;;;6071213;23;20208;-80
2024/03/25 00:52:12;;;;;;;0.90;0.47;;;;;;;;;;6094512;23;20648;-81
2024/03/25 00:54:43;;;;;;;4.53;0.60;;;;;;;;;;6072410;23;20176;-81
2024/03/25 00:57:11;;;;;;;0.63;0.63;;;;;;;;;;6095075;23;20165;-79
2024/03/25 00:59:39;;;;;;;0.83;0.60;;;;;;;;;;6094792;23;20201;-82
2024/03/25 01:02:08;;;;;;;0.40;0.40;;;;;;;;;;6119310;23;20168;-81
2024/03/25 01:04:34;;;;;;;0.60;0.40;;;;;;;;;;6094911;23;20171;-82
2024/03/25 01:07:03;;;;;;;0.70;0.40;;;;;;;;;;6071034;23;20170;-81
2024/03/25 01:09:29;;;;;;;0.90;0.60;;;;;;;;;;6070970;23;20168;-80
2024/03/25 01:11:58;;;;;;;1.93;0.60;;;;;;;;;;6070859;23;20202;-80
2024/03/25 01:14:26;;;;;;;1.30;0.60;;;;;;;;;;6070991;23;20243;-80
2024/03/25 01:16:56;;;;;;;0.73;0.60;;;;;;;;;;6095012;23;20175;-82
2024/03/25 01:19:23;;;;;;;0.67;0.67;;;;;;;;;;6118807;23;20181;-81
2024/03/25 01:21:50;;;;;;;0.50;0.50;;;;;;;;;;6118899;23;20171;-83
2024/03/25 01:24:16;;;;;;;0.47;0.40;;;;;;;;;;6118512;23;20166;-81
2024/03/25 01:26:42;;;;;;;0.97;0.63;;;;;;;;;;6094414;23;20247;-80
2024/03/25 01:29:12;;;;;;;0.60;0.60;;;;;;;;;;6070808;23;20681;-80
2024/03/25 01:31:44;;;;;;;0.97;0.80;;;;;;;;;;6094743;23;20198;-80
2024/03/25 01:34:10;;;;;;;1.17;0.67;;;;;;;;;;6094341;23;20224;-81
2024/03/25 01:36:37;;;;;;;1.53;0.70;;;;;;;;;;6094549;23;20636;-83
2024/03/25 01:39:05;;;;;;;0.90;0.77;;;;;;;;;;6094455;23;20255;-80
2024/03/25 01:41:32;;;;;;;0.97;0.60;;;;;;;;;;6070815;23;20167;-81
2024/03/25 01:43:58;;;;;;;0.60;0.60;;;;;;;;;;6046378;23;20736;-81
2024/03/25 01:46:25;;;;;;;1.10;0.70;;;;;;;;;;6118722;23;20174;-81
2024/03/25 01:48:53;;;;;;;1.53;0.70;;;;;;;;;;6094481;23;20165;-81
2024/03/25 01:51:23;;;;;;;0.90;0.60;;;;;;;;;;6093746;23;20211;-84
2024/03/25 01:53:53;;;;;;;0.50;0.50;;;;;;;;;;6094675;23;20164;-81
2024/03/25 01:56:22;;;;;;;1.10;1.00;;;;;;;;;;6070789;23;20186;-83
2024/03/25 01:58:51;;;;;;;0.83;0.67;;;;;;;;;;6094720;23;20145;-80
2024/03/25 02:01:19;;;;;;;0.70;0.50;;;;;;;;;;6070830;23;20255;-82
2024/03/25 02:03:46;;;;;;;0.50;0.50;;;;;;;;;;6094561;23;20166;-82
2024/03/25 02:06:13;;;;;;;0.50;0.50;;;;;;;;;;6094314;23;20193;-81
2024/03/25 02:08:40;;;;;;;0.90;0.60;;;;;;;;;;6094074;23;20168;-80
2024/03/25 02:11:07;;;;;;;0.50;0.50;;;;;;;;;;6094105;23;20192;-82
2024/03/25 02:13:35;;;;;;;1.13;0.50;;;;;;;;;;6094387;23;20211;-82
2024/03/25 02:16:08;;;;;;;0.60;0.40;;;;;;;;;;6094262;23;20192;-80
2024/03/25 02:18:34;;;;;;;0.40;0.40;;;;;;;;;;6094759;23;20220;-81
2024/03/25 02:21:05;;;;;;;0.80;0.50;;;;;;;;;;6094224;23;20173;-81
2024/03/25 02:23:34;;;;;;;0.43;0.43;;;;;;;;;;6094053;23;20151;-82
2024/03/25 02:26:00;;;;;;;0.40;0.40;;;;;;;;;;6093889;23;20170;-83
2024/03/25 02:28:27;;;;;;;1.07;0.53;;;;;;;;;;6093817;23;20194;-81
2024/03/25 02:30:57;;;;;;;0.50;0.50;;;;;;;;;;6093883;23;20196;-82
2024/03/25 02:33:24;;;;;;;0.47;0.47;;;;;;;;;;6093862;23;20298;-82
2024/03/25 02:35:52;;;;;;;0.90;0.50;;;;;;;;;;6069882;23;20173;-81
2024/03/25 02:38:25;;;;;;;1.07;0.80;;;;;;;;;;6092522;23;20179;-83
2024/03/25 02:40:52;;;;;;;0.93;0.87;;;;;;;;;;6093534;23;20227;-81
2024/03/25 02:43:21;;;;;;;1.00;0.70;;;;;;;;;;6093857;23;20160;-80
2024/03/25 02:45:47;;;;;;;0.70;0.70;;;;;;;;;;6093209;23;20172;-82
2024/03/25 02:48:13;;;;;;;0.93;0.83;;;;;;;;;;6093481;23;20191;-82
2024/03/25 02:50:40;;;;;;;0.70;0.70;;;;;;;;;;6094000;23;20188;-81
2024/03/25 02:53:07;;;;;;;1.10;1.00;;;;;;;;;;6046208;23;20568;-80
2024/03/25 02:55:34;;;;;;;0.93;0.70;;;;;;;;;;6093946;23;20176;-83
2024/03/25 02:58:00;;;;;;;0.93;0.80;;;;;;;;;;6094047;23;20172;-81
2024/03/25 03:00:30;;;;;;;1.50;0.70;;;;;;;;;;6070495;23;20639;-81
2024/03/25 03:02:56;;;;;;;0.77;0.77;;;;;;;;;;6093769;23;20166;-80
2024/03/25 03:05:25;;;;;;;1.30;1.00;;;;;;;;;;6117178;23;20235;-79
2024/03/25 03:07:51;;;;;;;1.60;1.00;;;;;;;;;;6045842;23;20613;-80
2024/03/25 03:10:17;;;;;;;0.90;0.70;;;;;;;;;;6069830;23;20680;-81
2024/03/25 03:12:44;;;;;;;1.53;1.10;;;;;;;;;;6118074;23;20168;-81
2024/03/25 03:15:11;;;;;;;1.40;1.00;;;;;;;;;;6069767;23;20631;-79
2024/03/25 03:17:42;;;;;;;1.03;0.93;;;;;;;;;;6093749;23;20605;-80
2024/03/25 03:20:11;;;;;;;1.63;1.30;;;;;;;;;;6093626;23;20200;-80
2024/03/25 03:22:44;;;;;;;1.90;1.30;;;;;;;;;;6093677;23;20247;-82
2024/03/25 03:25:13;;;;;;;1.53;1.30;;;;;;;;;;6093459;23;20223;-81
2024/03/25 03:27:42;;;;;;;1.10;1.00;;;;;;;;;;6069931;23;20177;-80
2024/03/25 03:30:09;;;;;;;1.30;1.10;;;;;;;;;;6069760;23;20181;-81
2024/03/25 03:32:35;;;;;;;1.40;1.20;;;;;;;;;;6069444;23;20251;-80
2024/03/25 03:35:03;;;;;;;1.53;1.10;;;;;;;;;;6093711;23;20562;-80
2024/03/25 03:37:32;;;;;;;2.03;1.10;;;;;;;;;;6070010;23;20164;-84
2024/03/25 03:39:58;;;;;;;1.73;1.17;;;;;;;;;;6093576;23;20231;-82
2024/03/25 03:42:25;;;;;;;1.73;1.30;;;;;;;;;;6069600;23;20167;-83
2024/03/25 03:44:52;;;;;;;1.53;1.10;;;;;;;;;;6093497;23;20164;-82
2024/03/25 03:47:19;;;;;;;1.97;1.37;;;;;;;;;;6094450;23;20161;-81
2024/03/25 03:49:50;;;;;;;1.07;0.90;;;;;;;;;;6095603;23;20195;-83
2024/03/25 03:52:19;;;;;;;2.23;1.10;;;;;;;;;;6095578;23;20187;-82
2024/03/25 03:54:45;;;;;;;2.30;1.17;;;;;;;;;;6071453;23;20683;-81
2024/03/25 03:57:11;;;;;;;1.07;1.00;;;;;;;;;;6071728;23;20168;-81
2024/03/25 03:59:41;;;;;;;1.20;1.10;;;;;;;;;;6095017;23;20172;-81
2024/03/25 04:02:08;;;;;;;1.23;1.00;;;;;;;;;;6071895;23;20232;-81
2024/03/25 04:04:37;;;;;;;1.60;1.10;;;;;;;;;;6095862;23;20184;-82
2024/03/25 04:07:03;;;;;;;1.53;1.17;;;;;;;;;;6095377;23;20165;-81
2024/03/25 04:09:30;;;;;;;2.03;1.20;;;;;;;;;;6071967;23;20165;-81
2024/03/25 04:11:58;;;;;;;1.63;1.23;;;;;;;;;;6071919;23;20184;-81
2024/03/25 04:14:24;;;;;;;1.63;1.17;;;;;;;;;;6095134;23;20682;-78
2024/03/25 04:16:53;;;;;;;1.20;1.10;;;;;;;;;;6095734;23;20166;-82
2024/03/25 04:19:28;;;;;;;1.37;1.23;;;;;;;;;;6095281;23;20176;-81
2024/03/25 04:21:56;;;;;;;1.40;1.27;;;;;;;;;;6071493;23;20156;-80
2024/03/25 04:24:23;;;;;;;1.37;1.20;;;;;;;;;;6095365;23;20637;-82
2024/03/25 04:26:50;;;;;;;1.53;1.20;;;;;;;;;;6119883;23;20161;-80
2024/03/25 04:29:16;;;;;;;2.33;1.20;;;;;;;;;;6070780;23;20164;-81
2024/03/25 04:31:43;;;;;;;2.03;1.30;;;;;;;;;;6094642;23;20180;-83
2024/03/25 04:34:12;;;;;;;1.40;1.30;;;;;;;;;;6046382;23;20218;-81
2024/03/25 04:36:41;;;;;;;1.77;1.20;;;;;;;;;;6118604;23;20164;-82
2024/03/25 04:39:08;;;;;;;1.20;1.10;;;;;;;;;;6094527;23;20193;-83
2024/03/25 04:41:34;;;;;;;1.57;1.30;;;;;;;;;;6070845;23;20201;-82
2024/03/25 04:44:01;;;;;;;1.80;1.30;;;;;;;;;;6094637;23;20165;-81
2024/03/25 04:46:33;;;;;;;2.57;1.40;;;;;;;;;;6094997;23;20176;-83
2024/03/25 04:49:03;;;;;;;1.67;1.20;;;;;;;;;;6070614;23;20190;-81
2024/03/25 04:51:29;;;;;;;1.63;1.30;;;;;;;;;;6094659;23;20180;-80
2024/03/25 04:53:59;;;;;;;2.80;1.30;;;;;;;;;;6094700;23;20199;-82
2024/03/25 04:56:25;;;;;;;2.13;1.57;;;;;;;;;;6119241;23;20175;-82
2024/03/25 04:58:52;;;;;;;1.80;1.30;;;;;;;;;;6093715;23;20179;-83
2024/03/25 05:01:18;;;;;;;2.63;1.50;;;;;;;;;;6094897;23;20187;-81
2024/03/25 05:03:44;;;;;;;2.53;1.47;;;;;;;;;;6094534;23;20166;-80
2024/03/25 05:06:11;;;;;;;1.57;1.30;;;;;;;;;;6094638;23;20216;-81
2024/03/25 05:08:37;;;;;;;1.50;1.40;;;;;;;;;;6094618;23;20216;-79
2024/03/25 05:11:03;;;;;;;2.17;1.50;;;;;;;;;;6118962;23;20252;-80
2024/03/25 05:13:29;;;;;;;2.13;1.30;;;;;;;;;;6094261;23;20168;-78
2024/03/25 05:15:55;;;;;;;2.17;1.30;;;;;;;;;;6118718;23;20180;-78
2024/03/25 05:18:21;;;;;;;2.47;1.20;;;;;;;;;;6070795;23;20231;-80
2024/03/25 05:20:47;;;;;;;1.40;1.10;;;;;;;;;;6046787;23;20200;-80
2024/03/25 05:23:14;;;;;;;1.30;1.20;;;;;;;;;;6118734;23;20178;-80
2024/03/25 05:25:44;;;;;;;1.40;1.20;;;;;;;;;;6094321;23;20678;-81
2024/03/25 05:28:13;;;;;;;2.30;1.50;;;;;;;;;;6094348;23;20232;-79
2024/03/25 05:30:42;;;;;;;2.60;1.30;;;;;;;;;;6070725;23;20172;-79
2024/03/25 05:33:08;;;;;;;2.87;1.47;;;;;;;;;;6074211;23;20773;-80
2024/03/25 05:35:37;;;;;;;2.60;1.60;;;;;;;;;;6098787;23;20164;-80
2024/03/25 05:38:03;;;;;;;1.90;1.30;;;;;;;;;;6099005;23;20195;-79
2024/03/25 05:40:30;;;;;;;1.43;1.20;;;;;;;;;;6074524;23;20648;-79
2024/03/25 05:42:59;;;;;;;1.37;1.27;;;;;;;;;;6074390;23;20175;-79
2024/03/25 05:45:31;;;;;;;1.73;1.20;;;;;;;;;;6098544;23;20164;-81
2024/03/25 05:47:57;;;;;;;2.07;1.40;;;;;;;;;;6074338;23;20191;-80
2024/03/25 05:50:27;;;;;;;2.00;1.30;;;;;;;;;;6098650;23;20222;-84
2024/03/25 05:52:56;;;;;;;2.10;1.30;;;;;;;;;;6098856;23;20195;-81
2024/03/25 05:55:31;;;;;;;1.37;0.90;;;;;;;;;;6076016;23;20662;-80
2024/03/25 05:58:00;;;;;;;1.57;1.20;;;;;;;;;;6098960;23;20164;-82
2024/03/25 06:00:26;;;;;;;1.87;1.20;;;;;;;;;;6074591;23;20254;-80
2024/03/25 06:02:54;;;;;;;1.43;1.17;;;;;;;;;;6099058;23;20219;-79
2024/03/25 06:05:23;;;;;;;3.67;1.30;;;;;;;;;;6074807;23;20168;-79
2024/03/25 06:07:52;;;;;;;1.50;1.10;;;;;;;;;;6098221;23;20191;-79
2024/03/25 06:10:32;;;;;;;1.33;1.20;;;;;;;;;;6075793;23;20250;-79
2024/03/25 06:13:00;;;;;;;1.00;1.00;;;;;;;;;;6098372;23;20178;-79
2024/03/25 06:15:27;;;;;;;2.10;1.17;;;;;;;;;;6098452;23;20155;-80
2024/03/25 06:17:53;;;;;;;2.17;1.13;;;;;;;;;;6097151;23;20178;-79
2024/03/25 06:20:20;;;;;;;1.30;1.20;;;;;;;;;;6098229;23;20187;-80
2024/03/25 06:22:48;;;;;;;1.03;1.00;;;;;;;;;;6098198;23;20168;-81
2024/03/25 06:25:16;;;;;;;2.10;1.20;;;;;;;;;;6098464;23;20160;-79
2024/03/25 06:27:44;;;;;;;2.23;1.23;;;;;;;;;;6098725;23;20168;-78
2024/03/25 06:35:46;;;;;;;2.87;1.47;;;;;;;;;;6099971;23;20587;-78
2024/03/25 06:38:12;;;;;;;1.33;1.13;;;;;;;;;;6098445;23;20210;-78
2024/03/25 06:40:47;;;;;;;3.80;1.40;;;;;;;;;;6100663;23;20186;-78
2024/03/25 06:43:16;;;;;;;1.83;1.30;;;;;;;;;;6074607;23;20222;-78
2024/03/25 06:45:42;;;;;;;1.63;1.30;;;;;;;;;;6098129;23;20167;-81
2024/03/25 06:48:11;;;;;;;1.87;1.30;;;;;;;;;;6098754;23;20653;-79
2024/03/25 06:50:37;;;;;;;2.60;1.50;;;;;;;;;;6098260;23;20685;-80
2024/03/25 06:53:05;;;;;;;2.27;1.30;;;;;;;;;;6074378;23;20221;-78
2024/03/25 06:55:31;;;;;;;1.73;1.10;;;;;;;;;;6097724;23;20167;-80
2024/03/25 06:58:01;;;;;;;1.60;1.40;;;;;;;;;;6098616;23;20164;-78
2024/03/25 07:00:28;;;;;;;2.43;1.13;;;;;;;;;;6097168;23;20187;-81
2024/03/25 07:02:58;;;;;;;1.80;1.07;;;;;;;;;;6098266;23;20231;-79
2024/03/25 07:05:24;;;;;;;2.00;1.20;;;;;;;;;;6096489;23;20623;-78
2024/03/25 07:07:49;;;;;;;1.47;1.10;;;;;;;;;;6098030;23;20178;-77
2024/03/25 07:10:15;;;;;;;1.67;1.20;;;;;;;;;;6050104;23;20168;-79
2024/03/25 07:12:41;;;;;;;1.37;1.20;;;;;;;;;;6098429;23;20188;-79
2024/03/25 07:15:08;;;;;;;1.20;1.10;;;;;;;;;;6097637;23;20176;-79
2024/03/25 07:17:36;;;;;;;1.80;1.10;;;;;;;;;;6097963;23;20238;-79
2024/03/25 07:20:08;;;;;;;1.33;1.20;;;;;;;;;;6095628;23;20175;-81
2024/03/25 07:22:34;;;;;;;1.30;1.20;;;;;;;;;;6095969;23;20179;-79
2024/03/25 07:25:09;;;;;;;2.10;1.27;;;;;;;;;;6073421;23;20665;-80
2024/03/25 07:27:38;;;;;;;1.83;1.10;;;;;;;;;;6098235;23;20238;-79
2024/03/25 07:30:06;;;;;;;1.40;1.30;;;;;;;;;;6072353;23;20541;-79
2024/03/25 07:32:32;;;;;;;1.57;1.20;;;;;;;;;;6095512;23;20279;-79
2024/03/25 07:35:04;;;;;;;1.90;1.20;;;;;;;;;;6097462;23;20152;-78
2024/03/25 07:37:33;;;;;;;1.10;1.00;;;;;;;;;;6097419;23;20191;-78
2024/03/25 07:40:01;;;;;;;1.43;1.03;;;;;;;;;;6097224;23;20191;-79
2024/03/25 07:42:28;;;;;;;1.60;1.10;;;;;;;;;;6097872;23;20199;-79
2024/03/25 07:44:54;;;;;;;1.60;1.20;;;;;;;;;;6097486;23;20227;-80
2024/03/25 07:47:20;;;;;;;0.87;0.87;;;;;;;;;;6072395;23;20174;-78
2024/03/25 07:49:49;;;;;;;2.33;1.67;;;;;;;;;;6096057;23;20674;-79
2024/03/25 07:52:40;;;;;;;2.93;1.40;;;;;;;;;;6095555;23;20191;-79
2024/03/25 07:55:07;;;;;;;1.40;1.00;;;;;;;;;;6070978;23;20203;-80
2024/03/25 07:57:33;;;;;;;1.43;1.10;;;;;;;;;;6095349;23;20188;-81
2024/03/25 07:59:59;;;;;;;2.40;1.10;;;;;;;;;;6094649;23;20254;-80
2024/03/25 08:02:25;;;;;;;2.40;0.90;;;;;;;;;;6071627;23;20172;-80
2024/03/25 08:04:51;;;;;;;1.33;0.97;;;;;;;;;;6097121;23;20170;-79
2024/03/25 08:07:17;;;;;;;1.00;0.90;;;;;;;;;;6073295;23;20171;-80
2024/03/25 08:09:43;;;;;;;1.57;0.90;;;;;;;;;;6096763;23;20168;-78
2024/03/25 08:12:12;;;;;;;1.50;0.90;;;;;;;;;;6097059;23;20657;-79
2024/03/25 08:14:39;;;;;;;1.07;0.70;;;;;;;;;;6097492;23;20218;-79
2024/03/25 08:17:08;;;;;;;1.97;1.00;;;;;;;;;;6098018;23;20168;-77
2024/03/25 08:19:37;;;;;;;1.07;0.83;;;;;;;;;;6098293;23;20238;-79
2024/03/25 08:22:05;;;;;;;1.87;1.13;;;;;;;;;;6097469;23;20179;-79
2024/03/25 08:24:32;;;;;;;2.97;1.23;;;;;;;;;;6097346;23;20203;-79
2024/03/25 08:26:58;;;;;;;1.40;0.90;;;;;;;;;;6096296;23;20654;-79
2024/03/25 08:29:26;;;;;;;1.30;0.97;;;;;;;;;;6097089;23;20174;-79
2024/03/25 08:31:54;;;;;;;2.03;1.00;;;;;;;;;;6097741;23;20184;-80
2024/03/25 08:34:21;;;;;;;1.83;0.73;;;;;;;;;;6098522;23;20646;-82
2024/03/25 08:36:49;;;;;;;1.23;0.90;;;;;;;;;;6075288;23;20183;-80
2024/03/25 08:39:14;;;;;;;0.80;0.80;;;;;;;;;;6098659;23;20226;-79
2024/03/25 08:41:40;;;;;;;2.03;0.90;;;;;;;;;;6098996;23;20168;-80
2024/03/25 08:44:06;;;;;;;1.23;0.83;;;;;;;;;;6099093;23;20167;-79
2024/03/25 08:46:32;;;;;;;1.37;0.87;;;;;;;;;;6098810;23;20251;-82
2024/03/25 08:49:01;;;;;;;1.10;0.80;;;;;;;;;;6098174;23;20518;-80
2024/03/25 08:51:26;;;;;;;1.47;1.13;;;;;;;;;;6098539;23;20290;-81
2024/03/25 08:53:53;;;;;;;1.27;1.07;;;;;;;;;;6075066;23;20187;-79
2024/03/25 08:56:25;;;;;;;1.40;0.90;;;;;;;;;;6099768;23;20148;-78
2024/03/25 08:59:01;;;;;;;1.03;0.80;;;;;;;;;;6098403;23;20230;-79
2024/03/25 09:01:30;;;;;;;1.10;0.90;;;;;;;;;;6098529;23;20174;-79
2024/03/25 09:03:57;;;;;;;1.17;1.00;;;;;;;;;;6098424;23;20199;-78
2024/03/25 09:06:23;;;;;;;1.00;0.90;;;;;;;;;;6098449;23;20234;-79
2024/03/25 09:11:40;;;;;;;2.03;0.90;;;;;;;;;;6098098;23;20216;-80
2024/03/25 09:14:06;;;;;;;1.07;0.90;;;;;;;;;;6073734;23;20197;-78
2024/03/25 09:16:31;;;;;;;1.00;0.80;;;;;;;;;;6098068;23;20638;-78
2024/03/25 09:18:58;;;;;;;0.80;0.63;;;;;;;;;;6098149;23;20248;-79
2024/03/25 09:21:24;;;;;;;1.63;1.00;;;;;;;;;;6098363;23;20224;-80
2024/03/25 09:23:50;;;;;;;0.97;0.93;;;;;;;;;;6098032;23;20503;-80
2024/03/25 09:26:15;;;;;;;1.47;0.70;;;;;;;;;;6073627;23;20679;-79
2024/03/25 09:28:43;;;;;;;1.00;0.90;;;;;;;;;;6097839;23;20170;-80
2024/03/25 09:31:09;;;;;;;0.60;0.57;;;;;;;;;;6097097;23;20250;-84
2024/03/25 09:33:38;;;;;;;1.00;0.80;;;;;;;;;;6092561;23;20208;-79
2024/03/25 09:36:04;;;;;;;1.10;0.70;;;;;;;;;;6067935;23;20175;-79
2024/03/25 09:38:32;;;;;;;0.77;0.70;;;;;;;;;;6092199;23;20172;-81
2024/03/25 09:41:01;;;;;;;0.83;0.80;;;;;;;;;;6092532;23;20708;-79
2024/03/25 09:43:39;;;;;;;1.03;0.80;;;;;;;;;;6092631;23;20170;-80
2024/03/25 09:46:05;;;;;;;1.20;0.87;;;;;;;;;;6089125;23;20197;-78
2024/03/25 09:48:35;;;;;;;2.07;0.90;;;;;;;;;;6066868;23;20172;-80
2024/03/25 09:51:04;;;;;;;1.17;0.80;;;;;;;;;;6091761;23;20192;-78
2024/03/25 09:53:30;;;;;;;1.37;0.97;;;;;;;;;;6045195;23;20173;-81
2024/03/25 09:55:59;;;;;;;1.60;0.90;;;;;;;;;;6117150;23;20829;-81
2024/03/25 09:58:28;;;;;;;1.70;0.83;;;;;;;;;;6070326;23;20156;-78
2024/03/25 10:00:55;;;;;;;1.10;0.80;;;;;;;;;;6067507;23;20209;-79
2024/03/25 10:03:21;;;;;;;0.90;0.80;;;;;;;;;;6093443;23;20170;-80
2024/03/25 10:05:47;;;;;;;0.93;0.80;;;;;;;;;;6092746;23;20164;-79
2024/03/25 10:08:13;;;;;;;0.80;0.80;;;;;;;;;;6069084;23;20473;-79
2024/03/25 10:10:39;;;;;;;1.20;0.73;;;;;;;;;;6093790;23;20221;-79
2024/03/25 10:13:04;;;;;;;1.33;0.80;;;;;;;;;;6068816;23;20725;-80
2024/03/25 10:15:35;;;;;;;2.10;0.97;;;;;;;;;;6093656;23;20190;-78
2024/03/25 10:18:01;;;;;;;1.37;1.00;;;;;;;;;;6069094;23;20644;-79
2024/03/25 10:20:27;;;;;;;1.90;0.90;;;;;;;;;;6045460;23;20169;-81
2024/03/25 10:22:56;;;;;;;1.83;1.10;;;;;;;;;;6093724;23;20259;-78
2024/03/25 10:25:21;;;;;;;0.80;0.73;;;;;;;;;;6093023;23;20686;-79
2024/03/25 10:27:58;;;;;;;1.03;0.83;;;;;;;;;;6069744;23;20165;-79
2024/03/25 10:30:31;;;;;;;1.53;0.70;;;;;;;;;;6093303;23;20168;-80
2024/03/25 10:32:59;;;;;;;1.03;0.80;;;;;;;;;;6093210;23;20227;-78
2024/03/25 10:35:30;;;;;;;0.80;0.80;;;;;;;;;;6069675;23;20619;-78
2024/03/25 10:38:00;;;;;;;1.00;0.60;;;;;;;;;;6093829;23;20159;-81
2024/03/25 10:40:30;;;;;;;1.33;0.70;;;;;;;;;;6093707;23;20181;-80
2024/03/25 10:43:14;;;;;;;1.03;0.77;;;;;;;;;;6093370;23;20598;-80
2024/03/25 10:45:42;;;;;;;1.00;0.80;;;;;;;;;;6093283;23;20181;-79
2024/03/25 10:48:20;;;;;;;0.90;0.80;;;;;;;;;;6094074;23;20170;-78
2024/03/25 10:50:49;;;;;;;0.83;0.70;;;;;;;;;;6093252;23;20168;-80
2024/03/25 10:53:17;;;;;;;1.07;0.97;;;;;;;;;;6069780;23;20159;-79
2024/03/25 10:55:44;;;;;;;1.17;0.90;;;;;;;;;;6117594;23;20241;-80
2024/03/25 10:58:11;;;;;;;1.67;0.90;;;;;;;;;;6093784;23;20164;-78
2024/03/25 11:00:41;;;;;;;0.83;0.70;;;;;;;;;;6093444;23;20160;-79
2024/03/25 11:03:08;;;;;;;0.80;0.80;;;;;;;;;;6117781;23;20609;-79
2024/03/25 11:05:35;;;;;;;0.77;0.70;;;;;;;;;;6091961;23;20169;-78
2024/03/25 11:08:14;;;;;;;1.17;0.93;;;;;;;;;;6068804;23;20227;-79
2024/03/25 11:10:49;;;;;;;1.80;0.80;;;;;;;;;;6068070;23;20188;-81
2024/03/25 11:13:19;;;;;;;1.63;0.90;;;;;;;;;;6092559;23;20172;-78
2024/03/25 11:15:47;;;;;;;1.10;0.70;;;;;;;;;;6091698;23;20187;-80
2024/03/25 11:18:14;;;;;;;0.80;0.80;;;;;;;;;;6068510;23;20487;-78
2024/03/25 11:20:41;;;;;;;1.27;0.80;;;;;;;;;;6069200;23;20169;-79
2024/03/25 11:23:14;;;;;;;1.53;1.20;;;;;;;;;;6068587;23;20169;-79
2024/03/25 11:25:41;;;;;;;1.03;0.90;;;;;;;;;;6069097;23;20165;-79
2024/03/25 11:28:10;;;;;;;0.63;0.60;;;;;;;;;;6068565;23;20613;-78
2024/03/25 11:30:41;;;;;;;1.10;0.70;;;;;;;;;;6117131;23;20182;-81
2024/03/25 11:33:08;;;;;;;0.90;0.60;;;;;;;;;;6092364;23;20284;-79
2024/03/25 11:35:38;;;;;;;1.53;0.80;;;;;;;;;;6044890;23;20260;-81
2024/03/25 11:38:04;;;;;;;0.83;0.70;;;;;;;;;;6068516;23;20163;-78
2024/03/25 11:40:30;;;;;;;0.93;0.63;;;;;;;;;;6067816;23;20214;-80
2024/03/25 11:42:56;;;;;;;0.80;0.70;;;;;;;;;;6093028;23;20165;-79
2024/03/25 11:45:25;;;;;;;0.80;0.80;;;;;;;;;;6092169;23;20672;-78
2024/03/25 11:47:51;;;;;;;1.07;0.87;;;;;;;;;;6092820;23;20163;-80
2024/03/25 11:50:18;;;;;;;0.80;0.80;;;;;;;;;;6068188;23;20178;-78
2024/03/25 11:52:44;;;;;;;0.80;0.80;;;;;;;;;;6092923;23;20207;-79
2024/03/25 11:55:13;;;;;;;1.07;0.83;;;;;;;;;;6092762;23;20178;-80
2024/03/25 11:57:40;;;;;;;0.77;0.70;;;;;;;;;;6092903;23;20178;-78
2024/03/25 12:00:10;;;;;;;1.07;0.70;;;;;;;;;;6092259;23;20206;-78
2024/03/25 12:02:46;;;;;;;1.00;0.77;;;;;;;;;;6093626;23;20710;-79
2024/03/25 12:05:16;;;;;;;0.70;0.70;;;;;;;;;;6093340;23;20173;-80
2024/03/25 12:07:42;;;;;;;1.10;0.80;;;;;;;;;;6093464;23;20221;-79
2024/03/25 12:12:53;;;;;;;1.37;0.80;;;;;;;;;;6093376;23;20171;-79
2024/03/25 12:15:22;;;;;;;2.23;1.10;;;;;;;;;;6095081;23;20202;-78
2024/03/25 12:17:48;;;;;;;1.03;0.93;;;;;;;;;;6094720;23;20193;-84
2024/03/25 12:20:17;;;;;;;1.17;0.90;;;;;;;;;;6093767;23;20628;-82
2024/03/25 12:22:43;;;;;;;1.10;0.90;;;;;;;;;;6048008;23;20202;-82
2024/03/25 12:25:12;;;;;;;1.40;0.90;;;;;;;;;;6095531;23;20213;-83
2024/03/25 12:27:41;;;;;;;1.30;1.00;;;;;;;;;;6072483;23;20174;-83
2024/03/25 12:30:08;;;;;;;1.63;0.90;;;;;;;;;;6048225;23;20185;-83
2024/03/25 12:32:43;;;;;;;1.87;0.83;;;;;;;;;;6095349;23;20216;-83
2024/03/25 12:35:17;;;;;;;0.83;0.83;;;;;;;;;;6071583;23;20610;-81
2024/03/25 12:37:45;;;;;;;1.53;0.93;;;;;;;;;;6071305;23;20646;-80
2024/03/25 12:40:25;;;;;;;1.30;1.00;;;;;;;;;;6069427;23;20424;-79
2024/03/25 12:42:52;;;;;;;1.07;0.93;;;;;;;;;;6093956;23;20165;-81
2024/03/25 12:45:23;;;;;;;1.10;1.00;;;;;;;;;;6093396;23;20246;-81
2024/03/25 12:47:52;;;;;;;1.10;0.90;;;;;;;;;;6094098;23;20178;-81
2024/03/25 12:50:23;;;;;;;1.27;1.07;;;;;;;;;;6070549;23;20177;-82
2024/03/25 12:52:50;;;;;;;0.70;0.70;;;;;;;;;;6094094;23;20191;-82
2024/03/25 12:55:17;;;;;;;1.17;0.70;;;;;;;;;;6070725;23;20253;-81
2024/03/25 12:57:43;;;;;;;0.90;0.80;;;;;;;;;;6094992;23;20169;-82
2024/03/25 13:00:12;;;;;;;2.53;0.77;;;;;;;;;;6094435;23;20194;-82
2024/03/25 13:02:46;;;;;;;1.03;0.90;;;;;;;;;;6094924;23;20248;-83
2024/03/25 13:05:13;;;;;;;1.33;0.93;;;;;;;;;;6094291;23;20166;-81
2024/03/25 13:07:39;;;;;;;0.90;0.80;;;;;;;;;;6047333;23;20172;-81
2024/03/25 13:10:06;;;;;;;0.97;0.90;;;;;;;;;;6094456;23;20176;-80
2024/03/25 13:12:32;;;;;;;1.27;0.83;;;;;;;;;;6092055;23;20196;-82
2024/03/25 13:15:01;;;;;;;1.07;0.70;;;;;;;;;;6046718;23;20192;-81
2024/03/25 13:17:27;;;;;;;1.77;0.93;;;;;;;;;;6093438;23;20572;-83
2024/03/25 13:19:56;;;;;;;2.57;0.90;;;;;;;;;;6093540;23;20170;-80
2024/03/25 13:22:22;;;;;;;1.20;0.73;;;;;;;;;;6093967;23;20169;-84
2024/03/25 13:24:48;;;;;;;1.17;0.80;;;;;;;;;;6118980;23;20245;-84
2024/03/25 13:27:14;;;;;;;1.03;0.93;;;;;;;;;;6095622;23;20165;-84
2024/03/25 13:29:40;;;;;;;0.90;0.80;;;;;;;;;;6071388;23;20177;-84
2024/03/25 13:32:06;;;;;;;2.10;0.90;;;;;;;;;;6095641;23;20546;-84
2024/03/25 13:34:32;;;;;;;1.50;1.00;;;;;;;;;;6076024;23;20216;-86
2024/03/25 13:36:58;;;;;;;1.80;0.83;;;;;;;;;;6099538;23;20170;-84
2024/03/25 13:39:24;;;;;;;1.10;1.00;;;;;;;;;;6051438;23;20576;-84
2024/03/25 13:41:50;;;;;;;1.00;0.90;;;;;;;;;;6052131;23;20172;-83
2024/03/25 13:44:19;;;;;;;1.13;0.80;;;;;;;;;;6076001;23;20252;-84
2024/03/25 13:46:48;;;;;;;1.43;1.00;;;;;;;;;;6076689;23;20148;-84
2024/03/25 13:49:17;;;;;;;2.70;0.90;;;;;;;;;;6100049;23;20170;-83
2024/03/25 13:51:43;;;;;;;1.27;0.93;;;;;;;;;;6075696;23;20201;-83
2024/03/25 13:54:09;;;;;;;1.40;1.00;;;;;;;;;;6075837;23;20174;-83
2024/03/25 13:56:35;;;;;;;1.27;0.87;;;;;;;;;;6075807;23;20165;-83
2024/03/25 13:59:01;;;;;;;1.00;0.90;;;;;;;;;;6075484;23;20196;-83
2024/03/25 14:01:27;;;;;;;0.90;0.90;;;;;;;;;;6051567;23;20231;-83
2024/03/25 14:03:53;;;;;;;0.87;0.87;;;;;;;;;;6099683;23;20666;-83
2024/03/25 14:06:20;;;;;;;1.80;0.70;;;;;;;;;;6051702;23;20169;-84
2024/03/25 14:08:46;;;;;;;0.90;0.90;;;;;;;;;;6051823;23;20174;-82
2024/03/25 14:11:12;;;;;;;2.20;1.30;;;;;;;;;;6074316;23;20610;-84
2024/03/25 14:13:38;;;;;;;1.73;1.20;;;;;;;;;;6050193;23;20253;-83
2024/03/25 14:16:08;;;;;;;0.80;0.80;;;;;;;;;;6075405;23;20169;-83
2024/03/25 14:18:34;;;;;;;1.23;0.90;;;;;;;;;;6098452;23;20625;-83
2024/03/25 14:21:00;;;;;;;0.80;0.80;;;;;;;;;;6075151;23;20209;-81
2024/03/25 14:23:27;;;;;;;0.70;0.70;;;;;;;;;;6097925;23;20171;-81
2024/03/25 14:25:53;;;;;;;1.73;0.90;;;;;;;;;;6097588;23;20254;-81
2024/03/25 14:28:19;;;;;;;1.23;0.80;;;;;;;;;;6097095;23;20175;-81
2024/03/25 14:30:48;;;;;;;1.57;1.00;;;;;;;;;;6097764;23;20166;-81
2024/03/25 14:33:14;;;;;;;1.77;0.90;;;;;;;;;;6092700;23;20229;-80
2024/03/25 14:35:44;;;;;;;0.97;0.87;;;;;;;;;;6068845;23;20176;-83
2024/03/25 14:38:13;;;;;;;1.00;0.90;;;;;;;;;;6092874;23;20175;-82
2024/03/25 14:40:39;;;;;;;1.50;1.20;;;;;;;;;;6044536;23;20242;-82
2024/03/25 14:43:05;;;;;;;1.50;1.00;;;;;;;;;;6093366;23;20261;-82
2024/03/25 14:45:31;;;;;;;2.27;1.00;;;;;;;;;;6044932;23;20355;-82
2024/03/25 14:47:59;;;;;;;3.53;1.90;;;;;;;;;;6069274;23;20266;-82
2024/03/25 14:50:26;;;;;;;2.17;0.90;;;;;;;;;;6068999;23;20260;-80
2024/03/25 14:52:52;;;;;;;1.97;1.10;;;;;;;;;;6044558;23;20217;-82
2024/03/25 14:55:18;;;;;;;1.37;1.07;;;;;;;;;;6092428;23;20179;-81
2024/03/25 14:57:45;;;;;;;1.17;1.00;;;;;;;;;;6068050;23;20178;-80